sensor_id;sensor_type;location;lat;lon;timestamp;P1;durP1;ratioP1;P2;durP2;ratioP2
12535;SDS011;6334;48.696;2.114;2023-12-28T00:01:10;6.97;;;3.37;;
12535;SDS011;6334;48.696;2.114;2023-12-28T00:03:40;4.97;;;3.10;;
12535;SDS011;6334;48.696;2.114;2023-12-28T00:06:11;3.67;;;3.00;;
12535;SDS011;6334;48.696;2.114;2023-12-28T00:08:41;4.00;;;2.93;;
12535;SDS011;6334;48.696;2.114;2023-12-28T00:11:12;3.50;;;3.00;;
12535;SDS011;6334;48.696;2.114;2023-12-28T00:13:42;6.13;;;3.13;;
12535;SDS011;6334;48.696;2.114;2023-12-28T00:16:13;3.50;;;3.20;;
12535;SDS011;6334;48.696;2.114;2023-12-28T00:18:43;5.80;;;3.33;;
12535;SDS011;6334;48.696;2.114;2023-12-28T00:21:14;4.13;;;3.20;;
12535;SDS011;6334;48.696;2.114;2023-12-28T00:23:44;3.27;;;2.97;;
12535;SDS011;6334;48.696;2.114;2023-12-28T00:26:14;3.33;;;3.03;;
12535;SDS011;6334;48.696;2.114;2023-12-28T00:28:45;4.23;;;3.33;;
12535;SDS011;6334;48.696;2.114;2023-12-28T00:31:15;4.43;;;3.03;;
12535;SDS011;6334;48.696;2.114;2023-12-28T00:33:46;4.30;;;3.23;;
12535;SDS011;6334;48.696;2.114;2023-12-28T00:36:16;4.80;;;3.10;;
12535;SDS011;6334;48.696;2.114;2023-12-28T00:38:47;5.17;;;3.30;;
12535;SDS011;6334;48.696;2.114;2023-12-28T00:41:17;5.33;;;3.00;;
12535;SDS011;6334;48.696;2.114;2023-12-28T00:43:48;5.87;;;3.63;;
12535;SDS011;6334;48.696;2.114;2023-12-28T00:46:18;5.97;;;3.37;;
12535;SDS011;6334;48.696;2.114;2023-12-28T00:48:49;4.30;;;3.20;;
12535;SDS011;6334;48.696;2.114;2023-12-28T00:51:20;4.43;;;2.97;;
12535;SDS011;6334;48.696;2.114;2023-12-28T00:53:50;4.10;;;3.17;;
12535;SDS011;6334;48.696;2.114;2023-12-28T00:56:20;6.43;;;3.57;;
12535;SDS011;6334;48.696;2.114;2023-12-28T00:58:51;3.33;;;3.00;;
12535;SDS011;6334;48.696;2.114;2023-12-28T01:01:21;6.47;;;3.37;;
12535;SDS011;6334;48.696;2.114;2023-12-28T01:03:52;4.67;;;2.97;;
12535;SDS011;6334;48.696;2.114;2023-12-28T01:06:22;5.27;;;3.20;;
12535;SDS011;6334;48.696;2.114;2023-12-28T01:08:53;3.23;;;2.93;;
12535;SDS011;6334;48.696;2.114;2023-12-28T01:11:23;5.70;;;3.27;;
12535;SDS011;6334;48.696;2.114;2023-12-28T01:13:53;6.13;;;3.03;;
12535;SDS011;6334;48.696;2.114;2023-12-28T01:16:24;7.37;;;3.27;;
12535;SDS011;6334;48.696;2.114;2023-12-28T01:18:54;6.23;;;3.13;;
12535;SDS011;6334;48.696;2.114;2023-12-28T01:21:25;4.47;;;3.00;;
12535;SDS011;6334;48.696;2.114;2023-12-28T01:23:55;7.27;;;3.33;;
12535;SDS011;6334;48.696;2.114;2023-12-28T01:26:26;5.80;;;2.87;;
12535;SDS011;6334;48.696;2.114;2023-12-28T01:28:56;5.23;;;2.97;;
12535;SDS011;6334;48.696;2.114;2023-12-28T01:31:27;5.97;;;3.27;;
12535;SDS011;6334;48.696;2.114;2023-12-28T01:33:57;4.23;;;3.30;;
12535;SDS011;6334;48.696;2.114;2023-12-28T01:36:28;4.17;;;2.90;;
12535;SDS011;6334;48.696;2.114;2023-12-28T01:38:58;5.77;;;3.77;;
12535;SDS011;6334;48.696;2.114;2023-12-28T01:41:28;4.53;;;3.27;;
12535;SDS011;6334;48.696;2.114;2023-12-28T01:43:59;5.10;;;3.20;;
12535;SDS011;6334;48.696;2.114;2023-12-28T01:46:29;6.63;;;3.27;;
12535;SDS011;6334;48.696;2.114;2023-12-28T01:49:00;6.33;;;3.33;;
12535;SDS011;6334;48.696;2.114;2023-12-28T01:51:30;4.03;;;2.83;;
12535;SDS011;6334;48.696;2.114;2023-12-28T01:54:01;3.63;;;2.77;;
12535;SDS011;6334;48.696;2.114;2023-12-28T01:56:31;4.23;;;3.37;;
12535;SDS011;6334;48.696;2.114;2023-12-28T01:59:02;6.93;;;3.33;;
12535;SDS011;6334;48.696;2.114;2023-12-28T02:01:32;6.60;;;3.50;;
12535;SDS011;6334;48.696;2.114;2023-12-28T02:04:03;5.10;;;2.97;;
12535;SDS011;6334;48.696;2.114;2023-12-28T02:06:33;4.73;;;3.20;;
12535;SDS011;6334;48.696;2.114;2023-12-28T02:09:04;4.33;;;3.20;;
12535;SDS011;6334;48.696;2.114;2023-12-28T02:11:34;4.17;;;3.27;;
12535;SDS011;6334;48.696;2.114;2023-12-28T02:14:04;6.63;;;3.40;;
12535;SDS011;6334;48.696;2.114;2023-12-28T02:16:46;6.37;;;3.30;;
12535;SDS011;6334;48.696;2.114;2023-12-28T02:19:09;5.10;;;2.93;;
12535;SDS011;6334;48.696;2.114;2023-12-28T02:21:36;5.33;;;3.40;;
12535;SDS011;6334;48.696;2.114;2023-12-28T02:24:06;6.77;;;3.53;;
12535;SDS011;6334;48.696;2.114;2023-12-28T02:26:37;6.03;;;3.37;;
12535;SDS011;6334;48.696;2.114;2023-12-28T02:29:07;5.27;;;2.90;;
12535;SDS011;6334;48.696;2.114;2023-12-28T02:31:39;4.13;;;3.00;;
12535;SDS011;6334;48.696;2.114;2023-12-28T02:34:12;5.43;;;3.17;;
12535;SDS011;6334;48.696;2.114;2023-12-28T02:36:41;6.90;;;3.60;;
12535;SDS011;6334;48.696;2.114;2023-12-28T02:39:12;5.60;;;3.23;;
12535;SDS011;6334;48.696;2.114;2023-12-28T02:41:45;4.67;;;3.40;;
12535;SDS011;6334;48.696;2.114;2023-12-28T02:44:13;5.50;;;3.17;;
12535;SDS011;6334;48.696;2.114;2023-12-28T02:46:43;5.03;;;3.60;;
12535;SDS011;6334;48.696;2.114;2023-12-28T02:49:14;6.77;;;3.10;;
12535;SDS011;6334;48.696;2.114;2023-12-28T02:51:44;2.97;;;2.73;;
12535;SDS011;6334;48.696;2.114;2023-12-28T02:54:15;3.83;;;3.03;;
12535;SDS011;6334;48.696;2.114;2023-12-28T02:56:45;5.33;;;3.07;;
12535;SDS011;6334;48.696;2.114;2023-12-28T02:59:16;3.67;;;2.90;;
12535;SDS011;6334;48.696;2.114;2023-12-28T03:01:46;4.97;;;3.33;;
12535;SDS011;6334;48.696;2.114;2023-12-28T03:04:17;5.57;;;3.10;;
12535;SDS011;6334;48.696;2.114;2023-12-28T03:06:47;5.50;;;3.30;;
12535;SDS011;6334;48.696;2.114;2023-12-28T03:09:18;3.20;;;2.90;;
12535;SDS011;6334;48.696;2.114;2023-12-28T03:11:48;5.60;;;3.23;;
12535;SDS011;6334;48.696;2.114;2023-12-28T03:14:20;5.33;;;3.30;;
12535;SDS011;6334;48.696;2.114;2023-12-28T03:16:51;4.70;;;3.40;;
12535;SDS011;6334;48.696;2.114;2023-12-28T03:19:21;3.70;;;3.10;;
12535;SDS011;6334;48.696;2.114;2023-12-28T03:21:51;3.63;;;3.07;;
12535;SDS011;6334;48.696;2.114;2023-12-28T03:24:22;5.40;;;3.60;;
12535;SDS011;6334;48.696;2.114;2023-12-28T03:26:52;4.33;;;3.47;;
12535;SDS011;6334;48.696;2.114;2023-12-28T03:29:23;5.20;;;3.27;;
12535;SDS011;6334;48.696;2.114;2023-12-28T03:31:53;4.90;;;3.30;;
12535;SDS011;6334;48.696;2.114;2023-12-28T03:34:24;9.13;;;3.50;;
12535;SDS011;6334;48.696;2.114;2023-12-28T03:36:54;3.77;;;3.20;;
12535;SDS011;6334;48.696;2.114;2023-12-28T03:39:25;4.30;;;3.03;;
12535;SDS011;6334;48.696;2.114;2023-12-28T03:41:55;6.23;;;3.53;;
12535;SDS011;6334;48.696;2.114;2023-12-28T03:44:25;6.03;;;3.23;;
12535;SDS011;6334;48.696;2.114;2023-12-28T03:46:56;4.50;;;3.20;;
12535;SDS011;6334;48.696;2.114;2023-12-28T03:49:26;8.00;;;3.73;;
12535;SDS011;6334;48.696;2.114;2023-12-28T03:51:57;8.30;;;3.67;;
12535;SDS011;6334;48.696;2.114;2023-12-28T03:54:27;6.40;;;3.23;;
12535;SDS011;6334;48.696;2.114;2023-12-28T03:56:58;3.53;;;3.23;;
12535;SDS011;6334;48.696;2.114;2023-12-28T03:59:28;5.83;;;3.13;;
12535;SDS011;6334;48.696;2.114;2023-12-28T04:02:00;5.73;;;3.23;;
12535;SDS011;6334;48.696;2.114;2023-12-28T04:04:32;4.63;;;2.97;;
12535;SDS011;6334;48.696;2.114;2023-12-28T04:07:02;4.83;;;3.17;;
12535;SDS011;6334;48.696;2.114;2023-12-28T04:09:35;5.40;;;3.30;;
12535;SDS011;6334;48.696;2.114;2023-12-28T04:12:05;4.13;;;3.10;;
12535;SDS011;6334;48.696;2.114;2023-12-28T04:14:36;5.03;;;3.30;;
12535;SDS011;6334;48.696;2.114;2023-12-28T04:17:06;4.70;;;2.87;;
12535;SDS011;6334;48.696;2.114;2023-12-28T04:19:37;4.87;;;3.20;;
12535;SDS011;6334;48.696;2.114;2023-12-28T04:22:07;6.47;;;3.50;;
12535;SDS011;6334;48.696;2.114;2023-12-28T04:24:38;6.00;;;2.90;;
12535;SDS011;6334;48.696;2.114;2023-12-28T04:27:08;3.60;;;2.83;;
12535;SDS011;6334;48.696;2.114;2023-12-28T04:29:39;6.53;;;3.50;;
12535;SDS011;6334;48.696;2.114;2023-12-28T04:32:09;6.23;;;3.23;;
12535;SDS011;6334;48.696;2.114;2023-12-28T04:34:40;5.27;;;3.03;;
12535;SDS011;6334;48.696;2.114;2023-12-28T04:37:10;4.60;;;3.20;;
12535;SDS011;6334;48.696;2.114;2023-12-28T04:39:40;16.57;;;3.70;;
12535;SDS011;6334;48.696;2.114;2023-12-28T04:42:11;4.63;;;3.30;;
12535;SDS011;6334;48.696;2.114;2023-12-28T04:44:41;5.50;;;3.20;;
12535;SDS011;6334;48.696;2.114;2023-12-28T04:47:12;4.33;;;3.07;;
12535;SDS011;6334;48.696;2.114;2023-12-28T04:49:42;5.00;;;3.17;;
12535;SDS011;6334;48.696;2.114;2023-12-28T04:52:13;7.93;;;3.40;;
12535;SDS011;6334;48.696;2.114;2023-12-28T04:54:43;4.13;;;3.17;;
12535;SDS011;6334;48.696;2.114;2023-12-28T04:57:14;6.60;;;3.23;;
12535;SDS011;6334;48.696;2.114;2023-12-28T04:59:44;6.73;;;3.63;;
12535;SDS011;6334;48.696;2.114;2023-12-28T05:02:15;4.77;;;3.00;;
12535;SDS011;6334;48.696;2.114;2023-12-28T05:04:45;8.97;;;3.53;;
12535;SDS011;6334;48.696;2.114;2023-12-28T05:07:15;5.10;;;3.00;;
12535;SDS011;6334;48.696;2.114;2023-12-28T05:09:46;4.83;;;3.00;;
12535;SDS011;6334;48.696;2.114;2023-12-28T05:12:17;6.13;;;3.17;;
12535;SDS011;6334;48.696;2.114;2023-12-28T05:14:47;6.53;;;3.10;;
12535;SDS011;6334;48.696;2.114;2023-12-28T05:17:18;6.97;;;3.03;;
12535;SDS011;6334;48.696;2.114;2023-12-28T05:19:48;6.00;;;3.23;;
12535;SDS011;6334;48.696;2.114;2023-12-28T05:22:18;8.83;;;3.23;;
12535;SDS011;6334;48.696;2.114;2023-12-28T05:24:49;6.23;;;3.33;;
12535;SDS011;6334;48.696;2.114;2023-12-28T05:27:19;7.53;;;3.23;;
12535;SDS011;6334;48.696;2.114;2023-12-28T05:29:50;7.50;;;3.10;;
12535;SDS011;6334;48.696;2.114;2023-12-28T05:32:20;8.27;;;3.20;;
12535;SDS011;6334;48.696;2.114;2023-12-28T05:34:51;3.90;;;3.20;;
12535;SDS011;6334;48.696;2.114;2023-12-28T05:37:21;6.63;;;3.20;;
12535;SDS011;6334;48.696;2.114;2023-12-28T05:39:52;4.10;;;2.80;;
12535;SDS011;6334;48.696;2.114;2023-12-28T05:42:22;8.40;;;3.43;;
12535;SDS011;6334;48.696;2.114;2023-12-28T05:44:53;7.10;;;3.20;;
12535;SDS011;6334;48.696;2.114;2023-12-28T05:47:23;9.23;;;3.60;;
12535;SDS011;6334;48.696;2.114;2023-12-28T05:49:53;6.57;;;3.03;;
12535;SDS011;6334;48.696;2.114;2023-12-28T05:52:24;4.73;;;2.97;;
12535;SDS011;6334;48.696;2.114;2023-12-28T05:54:55;4.53;;;2.87;;
12535;SDS011;6334;48.696;2.114;2023-12-28T05:57:26;4.40;;;2.70;;
12535;SDS011;6334;48.696;2.114;2023-12-28T05:59:57;7.13;;;3.20;;
12535;SDS011;6334;48.696;2.114;2023-12-28T06:02:27;7.43;;;3.77;;
12535;SDS011;6334;48.696;2.114;2023-12-28T06:04:57;6.73;;;3.03;;
12535;SDS011;6334;48.696;2.114;2023-12-28T06:07:28;8.47;;;3.40;;
12535;SDS011;6334;48.696;2.114;2023-12-28T06:09:58;4.77;;;3.20;;
12535;SDS011;6334;48.696;2.114;2023-12-28T06:12:29;7.50;;;3.07;;
12535;SDS011;6334;48.696;2.114;2023-12-28T06:14:59;6.60;;;3.23;;
12535;SDS011;6334;48.696;2.114;2023-12-28T06:17:30;6.83;;;3.00;;
12535;SDS011;6334;48.696;2.114;2023-12-28T06:20:00;3.50;;;2.60;;
12535;SDS011;6334;48.696;2.114;2023-12-28T06:22:31;9.13;;;3.53;;
12535;SDS011;6334;48.696;2.114;2023-12-28T06:25:01;6.43;;;3.43;;
12535;SDS011;6334;48.696;2.114;2023-12-28T06:27:32;6.43;;;3.03;;
12535;SDS011;6334;48.696;2.114;2023-12-28T06:30:02;6.60;;;2.97;;
12535;SDS011;6334;48.696;2.114;2023-12-28T06:32:32;5.47;;;3.47;;
12535;SDS011;6334;48.696;2.114;2023-12-28T06:35:03;5.90;;;2.90;;
12535;SDS011;6334;48.696;2.114;2023-12-28T06:37:33;6.73;;;3.27;;
12535;SDS011;6334;48.696;2.114;2023-12-28T06:40:04;4.50;;;3.20;;
12535;SDS011;6334;48.696;2.114;2023-12-28T06:42:34;7.53;;;3.43;;
12535;SDS011;6334;48.696;2.114;2023-12-28T06:45:05;3.67;;;2.47;;
12535;SDS011;6334;48.696;2.114;2023-12-28T06:47:35;7.50;;;3.33;;
12535;SDS011;6334;48.696;2.114;2023-12-28T06:50:06;5.87;;;3.10;;
12535;SDS011;6334;48.696;2.114;2023-12-28T06:52:36;4.70;;;3.00;;
12535;SDS011;6334;48.696;2.114;2023-12-28T06:55:07;7.40;;;3.60;;
12535;SDS011;6334;48.696;2.114;2023-12-28T06:57:37;8.57;;;3.40;;
12535;SDS011;6334;48.696;2.114;2023-12-28T07:00:08;8.27;;;3.67;;
12535;SDS011;6334;48.696;2.114;2023-12-28T07:02:38;6.80;;;3.37;;
12535;SDS011;6334;48.696;2.114;2023-12-28T07:05:09;7.47;;;3.73;;
12535;SDS011;6334;48.696;2.114;2023-12-28T07:07:39;6.77;;;3.60;;
12535;SDS011;6334;48.696;2.114;2023-12-28T07:10:10;8.73;;;3.43;;
12535;SDS011;6334;48.696;2.114;2023-12-28T07:12:40;7.97;;;3.47;;
12535;SDS011;6334;48.696;2.114;2023-12-28T07:15:10;6.20;;;3.80;;
12535;SDS011;6334;48.696;2.114;2023-12-28T07:17:41;6.73;;;3.50;;
12535;SDS011;6334;48.696;2.114;2023-12-28T07:20:11;9.33;;;3.50;;
12535;SDS011;6334;48.696;2.114;2023-12-28T07:22:42;7.17;;;3.47;;
12535;SDS011;6334;48.696;2.114;2023-12-28T07:25:12;7.30;;;3.53;;
12535;SDS011;6334;48.696;2.114;2023-12-28T07:27:43;5.93;;;3.30;;
12535;SDS011;6334;48.696;2.114;2023-12-28T07:30:13;5.50;;;3.40;;
12535;SDS011;6334;48.696;2.114;2023-12-28T07:32:44;8.17;;;3.37;;
12535;SDS011;6334;48.696;2.114;2023-12-28T07:35:14;7.23;;;3.00;;
12535;SDS011;6334;48.696;2.114;2023-12-28T07:37:45;8.93;;;3.27;;
12535;SDS011;6334;48.696;2.114;2023-12-28T07:40:15;5.73;;;3.50;;
12535;SDS011;6334;48.696;2.114;2023-12-28T07:42:45;7.40;;;3.50;;
12535;SDS011;6334;48.696;2.114;2023-12-28T07:45:16;9.27;;;3.93;;
12535;SDS011;6334;48.696;2.114;2023-12-28T07:47:46;7.13;;;3.57;;
12535;SDS011;6334;48.696;2.114;2023-12-28T07:50:17;10.10;;;3.67;;
12535;SDS011;6334;48.696;2.114;2023-12-28T07:52:48;8.47;;;4.30;;
12535;SDS011;6334;48.696;2.114;2023-12-28T07:55:18;10.60;;;4.63;;
12535;SDS011;6334;48.696;2.114;2023-12-28T07:57:48;5.93;;;3.80;;
12535;SDS011;6334;48.696;2.114;2023-12-28T08:00:19;7.00;;;3.93;;
12535;SDS011;6334;48.696;2.114;2023-12-28T08:02:49;8.13;;;3.50;;
12535;SDS011;6334;48.696;2.114;2023-12-28T08:05:20;5.37;;;3.80;;
12535;SDS011;6334;48.696;2.114;2023-12-28T08:07:50;7.03;;;3.40;;
12535;SDS011;6334;48.696;2.114;2023-12-28T08:10:21;4.67;;;2.90;;
12535;SDS011;6334;48.696;2.114;2023-12-28T08:12:51;5.67;;;2.90;;
12535;SDS011;6334;48.696;2.114;2023-12-28T08:15:22;6.30;;;3.00;;
12535;SDS011;6334;48.696;2.114;2023-12-28T08:17:52;5.47;;;3.03;;
12535;SDS011;6334;48.696;2.114;2023-12-28T08:20:22;7.00;;;3.07;;
12535;SDS011;6334;48.696;2.114;2023-12-28T08:22:53;7.13;;;3.10;;
12535;SDS011;6334;48.696;2.114;2023-12-28T08:25:23;6.13;;;3.07;;
12535;SDS011;6334;48.696;2.114;2023-12-28T08:27:54;4.50;;;2.57;;
12535;SDS011;6334;48.696;2.114;2023-12-28T08:30:24;5.37;;;3.00;;
12535;SDS011;6334;48.696;2.114;2023-12-28T08:32:55;6.90;;;3.20;;
12535;SDS011;6334;48.696;2.114;2023-12-28T08:35:25;6.77;;;3.83;;
12535;SDS011;6334;48.696;2.114;2023-12-28T08:37:56;6.80;;;3.40;;
12535;SDS011;6334;48.696;2.114;2023-12-28T08:40:26;7.77;;;3.77;;
12535;SDS011;6334;48.696;2.114;2023-12-28T08:42:57;6.20;;;3.67;;
12535;SDS011;6334;48.696;2.114;2023-12-28T08:45:27;5.67;;;3.00;;
12535;SDS011;6334;48.696;2.114;2023-12-28T08:47:57;5.07;;;3.20;;
12535;SDS011;6334;48.696;2.114;2023-12-28T08:50:28;6.70;;;3.50;;
12535;SDS011;6334;48.696;2.114;2023-12-28T08:52:58;7.17;;;3.37;;
12535;SDS011;6334;48.696;2.114;2023-12-28T08:55:29;8.43;;;3.23;;
12535;SDS011;6334;48.696;2.114;2023-12-28T08:57:59;6.10;;;3.17;;
12535;SDS011;6334;48.696;2.114;2023-12-28T09:00:30;6.50;;;3.33;;
12535;SDS011;6334;48.696;2.114;2023-12-28T09:03:00;6.77;;;3.43;;
12535;SDS011;6334;48.696;2.114;2023-12-28T09:05:31;7.33;;;3.60;;
12535;SDS011;6334;48.696;2.114;2023-12-28T09:08:01;6.77;;;3.60;;
12535;SDS011;6334;48.696;2.114;2023-12-28T09:10:32;6.93;;;3.40;;
12535;SDS011;6334;48.696;2.114;2023-12-28T09:13:03;6.77;;;3.60;;
12535;SDS011;6334;48.696;2.114;2023-12-28T09:15:32;7.63;;;3.40;;
12535;SDS011;6334;48.696;2.114;2023-12-28T09:18:03;6.70;;;3.50;;
12535;SDS011;6334;48.696;2.114;2023-12-28T09:20:35;7.50;;;3.67;;
12535;SDS011;6334;48.696;2.114;2023-12-28T09:23:05;6.20;;;3.27;;
12535;SDS011;6334;48.696;2.114;2023-12-28T09:25:36;7.70;;;3.23;;
12535;SDS011;6334;48.696;2.114;2023-12-28T09:28:06;6.13;;;3.40;;
12535;SDS011;6334;48.696;2.114;2023-12-28T09:30:37;7.63;;;3.50;;
12535;SDS011;6334;48.696;2.114;2023-12-28T09:33:07;8.40;;;3.50;;
12535;SDS011;6334;48.696;2.114;2023-12-28T09:35:37;8.27;;;3.50;;
12535;SDS011;6334;48.696;2.114;2023-12-28T09:38:08;8.67;;;3.20;;
12535;SDS011;6334;48.696;2.114;2023-12-28T09:40:40;6.67;;;3.47;;
12535;SDS011;6334;48.696;2.114;2023-12-28T09:43:13;4.83;;;3.47;;
12535;SDS011;6334;48.696;2.114;2023-12-28T09:45:53;7.53;;;4.07;;
12535;SDS011;6334;48.696;2.114;2023-12-28T09:48:23;5.83;;;3.80;;
12535;SDS011;6334;48.696;2.114;2023-12-28T09:50:54;6.73;;;3.23;;
12535;SDS011;6334;48.696;2.114;2023-12-28T09:53:25;6.87;;;3.70;;
12535;SDS011;6334;48.696;2.114;2023-12-28T09:55:55;4.23;;;3.43;;
12535;SDS011;6334;48.696;2.114;2023-12-28T09:58:25;6.80;;;3.90;;
12535;SDS011;6334;48.696;2.114;2023-12-28T10:00:56;6.40;;;4.10;;
12535;SDS011;6334;48.696;2.114;2023-12-28T10:03:26;6.93;;;3.77;;
12535;SDS011;6334;48.696;2.114;2023-12-28T10:05:57;6.17;;;3.70;;
12535;SDS011;6334;48.696;2.114;2023-12-28T10:08:27;7.53;;;4.30;;
12535;SDS011;6334;48.696;2.114;2023-12-28T10:10:58;4.00;;;3.33;;
12535;SDS011;6334;48.696;2.114;2023-12-28T10:13:28;7.17;;;3.73;;
12535;SDS011;6334;48.696;2.114;2023-12-28T10:15:58;9.20;;;3.73;;
12535;SDS011;6334;48.696;2.114;2023-12-28T10:18:29;4.57;;;3.40;;
12535;SDS011;6334;48.696;2.114;2023-12-28T10:20:59;9.63;;;3.90;;
12535;SDS011;6334;48.696;2.114;2023-12-28T10:23:30;8.63;;;4.07;;
12535;SDS011;6334;48.696;2.114;2023-12-28T10:26:00;5.40;;;3.70;;
12535;SDS011;6334;48.696;2.114;2023-12-28T10:28:31;5.87;;;3.70;;
12535;SDS011;6334;48.696;2.114;2023-12-28T10:31:01;8.77;;;4.10;;
12535;SDS011;6334;48.696;2.114;2023-12-28T10:33:35;9.73;;;4.33;;
12535;SDS011;6334;48.696;2.114;2023-12-28T10:36:08;11.97;;;4.40;;
12535;SDS011;6334;48.696;2.114;2023-12-28T10:38:38;5.57;;;3.60;;
12535;SDS011;6334;48.696;2.114;2023-12-28T10:41:09;8.87;;;4.77;;
12535;SDS011;6334;48.696;2.114;2023-12-28T10:46:20;11.40;;;4.70;;
12535;SDS011;6334;48.696;2.114;2023-12-28T10:48:52;9.33;;;4.80;;
12535;SDS011;6334;48.696;2.114;2023-12-28T10:51:22;7.27;;;4.23;;
12535;SDS011;6334;48.696;2.114;2023-12-28T10:56:44;8.43;;;4.37;;
12535;SDS011;6334;48.696;2.114;2023-12-28T10:59:17;8.70;;;4.50;;
12535;SDS011;6334;48.696;2.114;2023-12-28T11:01:58;8.67;;;4.30;;
12535;SDS011;6334;48.696;2.114;2023-12-28T11:04:32;7.73;;;4.40;;
12535;SDS011;6334;48.696;2.114;2023-12-28T11:07:01;6.60;;;4.30;;
12535;SDS011;6334;48.696;2.114;2023-12-28T11:09:32;7.67;;;4.27;;
12535;SDS011;6334;48.696;2.114;2023-12-28T11:12:03;8.53;;;4.20;;
12535;SDS011;6334;48.696;2.114;2023-12-28T11:14:33;7.67;;;4.23;;
12535;SDS011;6334;48.696;2.114;2023-12-28T11:17:03;9.80;;;4.50;;
12535;SDS011;6334;48.696;2.114;2023-12-28T11:19:34;6.63;;;4.33;;
12535;SDS011;6334;48.696;2.114;2023-12-28T11:22:04;8.03;;;4.60;;
12535;SDS011;6334;48.696;2.114;2023-12-28T11:24:35;9.07;;;4.10;;
12535;SDS011;6334;48.696;2.114;2023-12-28T11:27:05;6.43;;;4.00;;
12535;SDS011;6334;48.696;2.114;2023-12-28T11:29:36;10.80;;;4.00;;
12535;SDS011;6334;48.696;2.114;2023-12-28T11:32:07;8.23;;;3.80;;
12535;SDS011;6334;48.696;2.114;2023-12-28T11:34:37;6.73;;;4.00;;
12535;SDS011;6334;48.696;2.114;2023-12-28T11:37:07;6.37;;;3.70;;
12535;SDS011;6334;48.696;2.114;2023-12-28T11:39:37;8.37;;;4.70;;
12535;SDS011;6334;48.696;2.114;2023-12-28T11:42:08;6.03;;;4.40;;
12535;SDS011;6334;48.696;2.114;2023-12-28T11:44:39;7.43;;;4.33;;
12535;SDS011;6334;48.696;2.114;2023-12-28T11:47:12;6.70;;;4.00;;
12535;SDS011;6334;48.696;2.114;2023-12-28T11:49:46;7.47;;;3.90;;
12535;SDS011;6334;48.696;2.114;2023-12-28T11:54:56;6.10;;;3.57;;
12535;SDS011;6334;48.696;2.114;2023-12-28T11:57:26;3.70;;;3.30;;
12535;SDS011;6334;48.696;2.114;2023-12-28T12:00:01;4.47;;;3.43;;
12535;SDS011;6334;48.696;2.114;2023-12-28T12:02:30;4.70;;;3.23;;
12535;SDS011;6334;48.696;2.114;2023-12-28T12:05:00;6.17;;;3.27;;
12535;SDS011;6334;48.696;2.114;2023-12-28T12:07:31;4.37;;;3.20;;
12535;SDS011;6334;48.696;2.114;2023-12-28T12:10:01;3.50;;;2.93;;
12535;SDS011;6334;48.696;2.114;2023-12-28T12:12:32;7.83;;;3.43;;
12535;SDS011;6334;48.696;2.114;2023-12-28T12:15:02;5.53;;;3.03;;
12535;SDS011;6334;48.696;2.114;2023-12-28T12:17:33;5.87;;;3.13;;
12535;SDS011;6334;48.696;2.114;2023-12-28T12:20:03;5.23;;;3.20;;
12535;SDS011;6334;48.696;2.114;2023-12-28T12:22:34;7.07;;;3.33;;
12535;SDS011;6334;48.696;2.114;2023-12-28T12:25:04;4.93;;;3.20;;
12535;SDS011;6334;48.696;2.114;2023-12-28T12:27:36;4.27;;;3.27;;
12535;SDS011;6334;48.696;2.114;2023-12-28T12:30:05;3.80;;;3.00;;
12535;SDS011;6334;48.696;2.114;2023-12-28T12:32:35;3.40;;;2.77;;
12535;SDS011;6334;48.696;2.114;2023-12-28T12:35:06;4.77;;;3.77;;
12535;SDS011;6334;48.696;2.114;2023-12-28T12:37:37;6.23;;;3.60;;
12535;SDS011;6334;48.696;2.114;2023-12-28T12:40:07;4.57;;;3.27;;
12535;SDS011;6334;48.696;2.114;2023-12-28T12:42:37;7.60;;;3.93;;
12535;SDS011;6334;48.696;2.114;2023-12-28T12:45:08;4.23;;;3.70;;
12535;SDS011;6334;48.696;2.114;2023-12-28T12:47:38;4.57;;;3.67;;
12535;SDS011;6334;48.696;2.114;2023-12-28T12:50:09;4.93;;;3.57;;
12535;SDS011;6334;48.696;2.114;2023-12-28T12:52:39;5.37;;;3.30;;
12535;SDS011;6334;48.696;2.114;2023-12-28T12:55:12;6.70;;;3.77;;
12535;SDS011;6334;48.696;2.114;2023-12-28T12:57:43;6.70;;;3.90;;
12535;SDS011;6334;48.696;2.114;2023-12-28T13:00:13;8.77;;;3.70;;
12535;SDS011;6334;48.696;2.114;2023-12-28T13:02:44;6.13;;;3.10;;
12535;SDS011;6334;48.696;2.114;2023-12-28T13:05:14;5.50;;;3.30;;
12535;SDS011;6334;48.696;2.114;2023-12-28T13:07:45;9.27;;;4.10;;
12535;SDS011;6334;48.696;2.114;2023-12-28T13:10:15;5.50;;;3.43;;
12535;SDS011;6334;48.696;2.114;2023-12-28T13:12:46;4.53;;;3.03;;
12535;SDS011;6334;48.696;2.114;2023-12-28T13:15:16;4.13;;;3.00;;
12535;SDS011;6334;48.696;2.114;2023-12-28T13:17:46;5.10;;;3.23;;
12535;SDS011;6334;48.696;2.114;2023-12-28T13:20:17;8.63;;;4.23;;
12535;SDS011;6334;48.696;2.114;2023-12-28T13:22:47;7.83;;;3.97;;
12535;SDS011;6334;48.696;2.114;2023-12-28T13:25:18;6.97;;;3.70;;
12535;SDS011;6334;48.696;2.114;2023-12-28T13:27:48;8.07;;;3.23;;
12535;SDS011;6334;48.696;2.114;2023-12-28T13:30:19;3.83;;;3.03;;
12535;SDS011;6334;48.696;2.114;2023-12-28T13:32:49;7.33;;;3.30;;
12535;SDS011;6334;48.696;2.114;2023-12-28T13:35:20;7.30;;;3.00;;
12535;SDS011;6334;48.696;2.114;2023-12-28T13:37:50;5.53;;;3.43;;
12535;SDS011;6334;48.696;2.114;2023-12-28T13:40:21;6.27;;;3.60;;
12535;SDS011;6334;48.696;2.114;2023-12-28T13:42:51;8.30;;;3.43;;
12535;SDS011;6334;48.696;2.114;2023-12-28T13:45:21;6.20;;;3.03;;
12535;SDS011;6334;48.696;2.114;2023-12-28T13:47:52;3.47;;;2.40;;
12535;SDS011;6334;48.696;2.114;2023-12-28T13:50:22;3.10;;;2.80;;
12535;SDS011;6334;48.696;2.114;2023-12-28T13:52:53;6.70;;;3.30;;
12535;SDS011;6334;48.696;2.114;2023-12-28T13:55:23;6.63;;;2.80;;
12535;SDS011;6334;48.696;2.114;2023-12-28T13:57:54;4.13;;;2.90;;
12535;SDS011;6334;48.696;2.114;2023-12-28T14:00:24;5.83;;;2.70;;
12535;SDS011;6334;48.696;2.114;2023-12-28T14:02:55;3.50;;;2.50;;
12535;SDS011;6334;48.696;2.114;2023-12-28T14:05:25;5.93;;;2.53;;
12535;SDS011;6334;48.696;2.114;2023-12-28T14:07:56;4.97;;;2.67;;
12535;SDS011;6334;48.696;2.114;2023-12-28T14:10:26;4.47;;;2.83;;
12535;SDS011;6334;48.696;2.114;2023-12-28T14:12:56;6.43;;;2.67;;
12535;SDS011;6334;48.696;2.114;2023-12-28T14:15:27;4.10;;;2.13;;
12535;SDS011;6334;48.696;2.114;2023-12-28T14:17:57;2.50;;;2.27;;
12535;SDS011;6334;48.696;2.114;2023-12-28T14:20:28;8.47;;;3.77;;
12535;SDS011;6334;48.696;2.114;2023-12-28T14:22:58;4.97;;;2.63;;
12535;SDS011;6334;48.696;2.114;2023-12-28T14:25:29;7.83;;;3.20;;
12535;SDS011;6334;48.696;2.114;2023-12-28T14:27:59;5.07;;;2.53;;
12535;SDS011;6334;48.696;2.114;2023-12-28T14:30:30;3.63;;;2.90;;
12535;SDS011;6334;48.696;2.114;2023-12-28T14:33:00;3.73;;;2.10;;
12535;SDS011;6334;48.696;2.114;2023-12-28T14:35:31;2.83;;;2.03;;
12535;SDS011;6334;48.696;2.114;2023-12-28T14:38:01;2.97;;;2.67;;
12535;SDS011;6334;48.696;2.114;2023-12-28T14:40:32;6.53;;;3.47;;
12535;SDS011;6334;48.696;2.114;2023-12-28T14:43:02;4.23;;;3.13;;
12535;SDS011;6334;48.696;2.114;2023-12-28T14:45:33;9.40;;;3.83;;
12535;SDS011;6334;48.696;2.114;2023-12-28T14:48:03;7.10;;;4.30;;
12535;SDS011;6334;48.696;2.114;2023-12-28T14:50:34;6.13;;;3.87;;
12535;SDS011;6334;48.696;2.114;2023-12-28T14:53:04;4.10;;;3.13;;
12535;SDS011;6334;48.696;2.114;2023-12-28T14:55:35;3.70;;;2.67;;
12535;SDS011;6334;48.696;2.114;2023-12-28T14:58:05;2.93;;;2.23;;
12535;SDS011;6334;48.696;2.114;2023-12-28T15:00:36;4.23;;;2.10;;
12535;SDS011;6334;48.696;2.114;2023-12-28T15:03:06;5.73;;;2.40;;
12535;SDS011;6334;48.696;2.114;2023-12-28T15:05:37;3.97;;;2.40;;
12535;SDS011;6334;48.696;2.114;2023-12-28T15:08:07;3.53;;;2.13;;
12535;SDS011;6334;48.696;2.114;2023-12-28T15:10:37;4.50;;;2.30;;
12535;SDS011;6334;48.696;2.114;2023-12-28T15:13:08;3.13;;;2.30;;
12535;SDS011;6334;48.696;2.114;2023-12-28T15:15:38;3.40;;;2.00;;
12535;SDS011;6334;48.696;2.114;2023-12-28T15:18:09;3.30;;;2.10;;
12535;SDS011;6334;48.696;2.114;2023-12-28T15:20:39;4.30;;;2.43;;
12535;SDS011;6334;48.696;2.114;2023-12-28T15:23:10;2.77;;;2.20;;
12535;SDS011;6334;48.696;2.114;2023-12-28T15:25:43;5.97;;;2.80;;
12535;SDS011;6334;48.696;2.114;2023-12-28T15:28:13;4.27;;;2.43;;